Time;durP1;ratioP1;P1;durP2;ratioP2;P2;SDS_P1;SDS_P2;PMS_P1;PMS_P2;Temp;Humidity;BMP_temperature;BMP_pressure;BME280_temperature;BME280_humidity;BME280_pressure;Samples;Min_cycle;Max_cycle;Signal;HPM_P1;HPM_P2
2023/04/25 00:01:36;;;;;;;8.65;7.90;;;;;;;16.69;60.54;98915.78;5092095;28;20107;-77
2023/04/25 00:04:02;;;;;;;9.35;7.70;;;;;;;16.74;60.11;98913.25;5092009;28;20113;-77
2023/04/25 00:06:29;;;;;;;8.52;7.63;;;;;;;16.19;60.28;98813.13;5093140;28;20016;-76
2023/04/25 00:08:56;;;;;;;9.13;8.10;;;;;;;16.27;60.13;98841.25;5091704;28;20381;-74
2023/04/25 00:11:22;;;;;;;8.65;7.43;;;;;;;16.64;60.35;98870.34;5093015;28;20035;-78
2023/04/25 00:13:48;;;;;;;7.72;7.03;;;;;;;16.68;60.39;98876.84;5093056;28;20019;-74
2023/04/25 00:16:15;;;;;;;8.23;7.22;;;;;;;16.76;60.58;98881.81;5091810;28;20119;-78
2023/04/25 00:18:41;;;;;;;8.48;7.28;;;;;;;16.76;60.67;98882.63;5093297;28;20024;-77
2023/04/25 00:21:07;;;;;;;9.55;8.07;;;;;;;16.58;60.70;98849.94;5093010;28;20020;-77
2023/04/25 00:23:32;;;;;;;8.63;7.72;;;;;;;16.73;60.86;98876.97;5092812;28;20405;-76
2023/04/25 00:25:58;;;;;;;7.72;6.93;;;;;;;16.14;60.97;98780.22;5092750;28;20044;-76
2023/04/25 00:28:23;;;;;;;8.68;7.50;;;;;;;16.66;61.03;98853.09;5092831;28;20522;-77
2023/04/25 00:30:49;;;;;;;7.93;7.13;;;;;;;16.45;61.31;98803.03;5092774;28;20024;-76
2023/04/25 00:33:14;;;;;;;9.90;7.55;;;;;;;16.74;61.38;98849.25;5092891;28;20469;-74
2023/04/25 00:35:39;;;;;;;8.82;8.02;;;;;;;16.71;61.24;98842.53;5092732;28;20035;-75
2023/04/25 00:38:05;;;;;;;9.70;7.07;;;;;;;16.68;61.48;98842.19;5092575;28;20447;-75
2023/04/25 00:40:30;;;;;;;8.73;7.30;;;;;;;16.67;61.43;98841.38;5091633;28;20409;-76
2023/04/25 00:42:56;;;;;;;8.30;7.07;;;;;;;16.65;61.10;98840.81;5093104;28;20016;-74
2023/04/25 00:45:21;;;;;;;8.88;7.50;;;;;;;16.46;60.85;98810.81;5093095;28;20024;-77
2023/04/25 00:47:47;;;;;;;8.02;7.22;;;;;;;16.57;60.66;98837.66;5092851;28;20140;-76
2023/04/25 00:50:13;;;;;;;7.88;7.07;;;;;;;16.59;61.47;98827.59;5092572;28;20035;-76
2023/04/25 00:52:44;;;;;;;8.35;7.55;;;;;;;16.69;61.37;98833.16;5092366;28;20073;-77
2023/04/25 00:55:12;;;;;;;8.35;7.20;;;;;;;16.68;61.26;98826.22;5092280;28;20024;-77
2023/04/25 00:57:38;;;;;;;9.07;8.18;;;;;;;16.63;61.54;98810.09;5090916;28;20493;-76
2023/04/25 01:00:06;;;;;;;10.90;8.30;;;;;;;16.58;61.50;98816.13;5092216;28;20557;-77
2023/04/25 01:02:33;;;;;;;9.05;8.15;;;;;;;16.54;61.77;98812.28;5092141;28;20020;-77
2023/04/25 01:04:58;;;;;;;9.20;8.35;;;;;;;16.13;61.75;98752.78;5090780;28;20028;-77
2023/04/25 01:07:24;;;;;;;9.07;8.05;;;;;;;16.49;61.93;98806.84;5092261;28;20135;-76
2023/04/25 01:09:52;;;;;;;9.68;7.68;;;;;;;16.04;61.86;98735.53;5092291;28;20051;-77
2023/04/25 01:12:17;;;;;;;8.73;7.88;;;;;;;16.29;61.86;98799.22;5092077;28;20566;-77
2023/04/25 01:14:43;;;;;;;9.00;7.72;;;;;;;16.48;61.95;98821.22;5091923;28;20044;-76
2023/04/25 01:17:10;;;;;;;10.20;7.97;;;;;;;16.45;61.99;98816.38;5092021;28;20046;-77
2023/04/25 01:19:35;;;;;;;11.23;8.30;;;;;;;15.87;62.05;98727.44;5090591;28;20047;-76
2023/04/25 01:22:01;;;;;;;9.02;8.13;;;;;;;16.20;62.17;98758.00;5091844;28;20500;-76
2023/04/25 01:24:27;;;;;;;9.57;7.82;;;;;;;16.40;62.70;98790.41;5090227;28;20492;-76
2023/04/25 01:26:56;;;;;;;10.30;8.23;;;;;;;16.39;62.24;98786.13;5091549;28;20044;-77
2023/04/25 01:29:22;;;;;;;8.77;7.70;;;;;;;16.15;62.20;98748.03;5091783;28;20020;-77
2023/04/25 01:31:47;;;;;;;9.48;8.52;;;;;;;16.45;62.38;98787.88;5090453;28;20099;-76
2023/04/25 01:34:13;;;;;;;10.18;8.25;;;;;;;16.44;62.75;98777.44;5091653;28;20154;-76
2023/04/25 01:36:39;;;;;;;10.98;7.85;;;;;;;16.41;62.41;98768.06;5090352;28;20012;-75
2023/04/25 01:39:05;;;;;;;10.70;7.28;;;;;;;16.17;62.04;98745.13;5091330;28;20023;-77
2023/04/25 01:41:31;;;;;;;9.00;7.30;;;;;;;15.96;62.27;98708.47;5091506;28;20035;-76
2023/04/25 01:43:56;;;;;;;7.78;7.07;;;;;;;16.31;62.51;98775.00;5091241;28;20455;-76
2023/04/25 01:46:22;;;;;;;8.82;7.80;;;;;;;16.31;62.28;98770.47;5091523;28;20020;-76
2023/04/25 01:48:48;;;;;;;8.52;7.53;;;;;;;16.20;62.12;98756.13;5090239;28;20405;-76
2023/04/25 01:51:13;;;;;;;8.35;6.70;;;;;;;16.15;62.33;98749.88;5091423;28;20028;-76
2023/04/25 01:53:39;;;;;;;8.27;7.45;;;;;;;16.33;61.78;98770.25;5091246;28;20016;-76
2023/04/25 01:56:05;;;;;;;8.00;6.82;;;;;;;16.10;62.25;98734.59;5090131;28;20028;-76
2023/04/25 01:58:30;;;;;;;9.18;8.30;;;;;;;16.24;62.13;98758.34;5091431;28;20020;-76
2023/04/25 02:00:56;;;;;;;8.93;7.60;;;;;;;16.20;62.37;98758.00;5091264;28;20074;-76
2023/04/25 02:03:21;;;;;;;7.80;6.65;;;;;;;16.27;62.01;98764.00;5091284;28;20027;-76
2023/04/25 02:05:46;;;;;;;7.28;6.28;;;;;;;16.19;62.25;98751.03;5091471;28;20077;-76
2023/04/25 02:08:13;;;;;;;7.28;6.60;;;;;;;16.27;62.01;98763.19;5095348;28;20024;-78
2023/04/25 02:10:38;;;;;;;13.13;7.32;;;;;;;16.16;61.72;98747.00;5095399;28;20028;-76
2023/04/25 02:13:05;;;;;;;7.40;6.70;;;;;;;15.98;61.60;98714.38;5094069;28;20012;-76
2023/04/25 02:15:30;;;;;;;7.20;6.47;;;;;;;16.18;61.33;98755.56;5095467;28;20024;-76
2023/04/25 02:17:56;;;;;;;8.25;5.90;;;;;;;15.95;60.60;98717.50;5095373;28;20431;-76
2023/04/25 02:20:23;;;;;;;6.88;6.22;;;;;;;16.18;60.12;98760.06;5095547;28;20503;-77
2023/04/25 02:22:48;;;;;;;8.15;6.25;;;;;;;16.18;60.13;98744.09;5095288;28;20024;-77
2023/04/25 02:25:15;;;;;;;6.15;5.22;;;;;;;16.01;59.94;98720.03;5095350;28;20093;-77
2023/04/25 02:27:41;;;;;;;6.03;5.35;;;;;;;16.19;59.67;98757.19;5095348;28;20020;-77
2023/04/25 02:30:07;;;;;;;5.75;5.25;;;;;;;16.05;59.44;98734.50;5095154;28;20400;-77
2023/04/25 02:32:34;;;;;;;5.90;5.40;;;;;;;15.53;59.14;98651.84;5093845;28;20027;-77
2023/04/25 02:35:04;;;;;;;5.20;4.70;;;;;;;16.05;59.09;98731.03;5094967;28;20020;-76
2023/04/25 02:37:30;;;;;;;6.15;4.85;;;;;;;15.99;58.90;98730.09;5095220;28;20028;-77
2023/04/25 02:39:56;;;;;;;6.97;5.07;;;;;;;15.61;58.67;98688.00;5095172;28;20501;-77
2023/04/25 02:42:21;;;;;;;5.47;4.70;;;;;;;15.49;57.84;98652.53;5093471;28;20028;-77
2023/04/25 02:44:47;;;;;;;6.47;4.95;;;;;;;15.97;57.32;98742.84;5094606;28;20115;-77
2023/04/25 02:47:12;;;;;;;5.53;5.03;;;;;;;15.71;57.02;98703.38;5093400;28;20052;-77
2023/04/25 02:49:38;;;;;;;6.20;4.63;;;;;;;15.58;56.89;98683.91;5094952;28;20024;-76
2023/04/25 02:52:03;;;;;;;5.30;4.55;;;;;;;15.44;56.70;98655.88;5094798;28;20024;-77
2023/04/25 02:54:29;;;;;;;4.85;4.35;;;;;;;15.91;56.51;98741.09;5094933;28;20012;-77
2023/04/25 02:56:54;;;;;;;6.28;4.57;;;;;;;15.89;55.75;98732.53;5094636;28;20516;-76
2023/04/25 02:59:20;;;;;;;5.28;4.78;;;;;;;15.44;56.16;98660.41;5094407;28;20019;-76
2023/04/25 03:01:45;;;;;;;5.80;5.15;;;;;;;15.78;55.88;98712.88;5094504;28;20512;-76
2023/04/25 03:04:11;;;;;;;5.88;4.80;;;;;;;15.35;55.98;98637.84;5094171;28;20179;-76
2023/04/25 03:06:36;;;;;;;7.90;4.70;;;;;;;15.86;55.78;98717.84;5094223;28;20020;-76
2023/04/25 03:09:01;;;;;;;9.27;5.05;;;;;;;15.46;55.64;98645.81;5094741;28;20054;-77
2023/04/25 03:11:27;;;;;;;8.55;5.07;;;;;;;15.57;55.42;98684.97;5094231;28;20481;-76
2023/04/25 03:13:52;;;;;;;6.00;5.38;;;;;;;15.69;55.58;98700.94;5093080;28;20027;-76
2023/04/25 03:16:18;;;;;;;8.70;5.40;;;;;;;15.75;55.54;98717.84;5094141;28;20027;-76
2023/04/25 03:18:43;;;;;;;8.20;5.25;;;;;;;15.17;55.65;98631.59;5093259;28;20492;-76
2023/04/25 03:21:08;;;;;;;7.35;5.53;;;;;;;15.54;56.11;98689.91;5094223;28;20024;-77
2023/04/25 03:23:34;;;;;;;6.35;5.30;;;;;;;15.38;56.20;98686.06;5093946;28;20020;-76
2023/04/25 03:25:59;;;;;;;7.13;5.95;;;;;;;15.50;55.61;98686.88;5093812;28;20048;-76
2023/04/25 03:28:25;;;;;;;14.68;10.70;;;;;;;15.71;56.08;98722.00;5093722;28;20024;-76
2023/04/25 03:30:50;;;;;;;11.75;6.97;;;;;;;15.68;56.29;98717.97;5092496;28;20089;-77
2023/04/25 03:33:16;;;;;;;6.68;5.75;;;;;;;15.53;56.21;98699.72;5093945;28;20028;-76
2023/04/25 03:35:42;;;;;;;10.65;6.32;;;;;;;15.07;56.42;98636.66;5093736;28;20055;-76
2023/04/25 03:38:07;;;;;;;13.27;7.63;;;;;;;15.58;56.34;98710.53;5093853;28;20378;-76
2023/04/25 03:40:33;;;;;;;10.68;7.32;;;;;;;15.45;56.26;98685.97;5093611;28;20027;-76
2023/04/25 03:42:58;;;;;;;9.88;7.00;;;;;;;15.30;56.54;98666.97;5093944;28;20079;-77
2023/04/25 03:45:24;;;;;;;11.00;6.93;;;;;;;15.67;56.72;98731.50;5093563;28;20028;-76
2023/04/25 03:47:50;;;;;;;13.98;8.02;;;;;;;15.16;56.50;98659.22;5093581;28;20023;-76
2023/04/25 03:50:15;;;;;;;11.60;7.07;;;;;;;15.53;56.63;98712.22;5093596;28;20024;-76
2023/04/25 03:52:41;;;;;;;9.90;7.15;;;;;;;15.72;56.64;98735.09;5093320;28;20020;-76
2023/04/25 03:55:07;;;;;;;15.40;7.45;;;;;;;15.30;56.65;98670.44;5093372;28;20020;-77
2023/04/25 03:57:32;;;;;;;10.65;6.40;;;;;;;15.39;56.41;98690.34;5093589;28;20032;-77
2023/04/25 03:59:57;;;;;;;11.35;6.47;;;;;;;15.83;56.20;98750.25;5092242;28;20027;-76
2023/04/25 04:02:23;;;;;;;8.93;6.20;;;;;;;15.47;56.31;98695.34;5093412;28;20089;-77
2023/04/25 04:04:48;;;;;;;8.55;6.75;;;;;;;15.78;56.55;98741.34;5091952;28;20138;-76
2023/04/25 04:07:14;;;;;;;9.07;6.68;;;;;;;15.42;56.84;98692.56;5093252;28;20024;-77
2023/04/25 04:09:39;;;;;;;8.90;7.25;;;;;;;15.71;56.79;98744.13;5093224;28;20020;-77
2023/04/25 04:12:05;;;;;;;15.73;7.55;;;;;;;15.66;57.01;98729.88;5093175;28;20020;-76
2023/04/25 04:14:30;;;;;;;12.98;7.38;;;;;;;15.24;56.79;98666.06;5093097;28;20507;-77
2023/04/25 04:16:56;;;;;;;14.60;7.63;;;;;;;15.21;56.86;98669.16;5092946;28;20032;-77
2023/04/25 04:19:21;;;;;;;19.02;8.07;;;;;;;15.10;56.93;98652.16;5092883;28;20111;-76
2023/04/25 04:21:46;;;;;;;14.15;7.85;;;;;;;15.51;57.42;98714.31;5092805;28;20059;-76
2023/04/25 04:24:12;;;;;;;13.75;7.82;;;;;;;15.23;57.44;98678.53;5092892;28;20093;-75
2023/04/25 04:26:38;;;;;;;16.17;7.70;;;;;;;15.21;57.71;98683.28;5092712;28;20052;-75
2023/04/25 04:29:04;;;;;;;12.23;7.50;;;;;;;15.42;57.03;98716.50;5092207;28;20038;-76
2023/04/25 04:31:29;;;;;;;14.88;7.93;;;;;;;15.65;57.06;98750.34;5092826;28;20032;-77
2023/04/25 04:33:55;;;;;;;13.00;8.05;;;;;;;15.26;57.01;98698.53;5092776;28;20024;-76
2023/04/25 04:36:21;;;;;;;12.27;8.13;;;;;;;15.75;56.86;98752.44;5092796;28;20485;-76
2023/04/25 04:38:47;;;;;;;13.75;8.82;;;;;;;15.77;56.66;98758.34;5091357;28;20111;-76
2023/04/25 04:41:12;;;;;;;11.40;7.93;;;;;;;15.44;56.76;98718.91;5092622;28;20066;-77
2023/04/25 04:43:39;;;;;;;9.05;7.38;;;;;;;15.63;56.45;98751.63;5092658;28;20028;-77
2023/04/25 04:46:04;;;;;;;10.20;8.30;;;;;;;15.29;56.76;98721.22;5092720;28;20440;-76
2023/04/25 04:48:34;;;;;;;11.52;9.13;;;;;;;15.61;56.58;98757.19;5092525;28;20038;-77
2023/04/25 04:51:00;;;;;;;10.88;8.38;;;;;;;15.31;56.84;98716.47;5091170;28;20056;-77
2023/04/25 04:53:26;;;;;;;8.68;7.40;;;;;;;15.07;56.50;98684.53;5092284;28;20119;-76
2023/04/25 04:55:52;;;;;;;9.93;7.63;;;;;;;15.19;56.63;98696.00;5092326;28;20102;-76
2023/04/25 04:58:18;;;;;;;12.52;8.75;;;;;;;15.57;56.68;98753.28;5092332;28;20457;-76
2023/04/25 05:00:43;;;;;;;11.18;7.90;;;;;;;15.54;57.25;98754.56;5090866;28;20048;-77
2023/04/25 05:03:08;;;;;;;13.65;7.03;;;;;;;15.05;56.98;98686.59;5092359;28;20485;-76
2023/04/25 05:05:34;;;;;;;8.32;7.03;;;;;;;15.03;56.99;98706.47;5092174;28;20024;-77
2023/04/25 05:07:59;;;;;;;9.27;7.60;;;;;;;15.22;57.31;98724.78;5092506;28;20038;-76
2023/04/25 05:10:25;;;;;;;8.27;7.30;;;;;;;15.40;58.17;98763.78;5092136;28;20461;-77
2023/04/25 05:12:50;;;;;;;9.27;8.38;;;;;;;14.93;58.61;98694.53;5092055;28;20043;-76
2023/04/25 05:15:16;;;;;;;9.65;7.65;;;;;;;15.36;59.26;98751.19;5091855;28;20511;-76
2023/04/25 05:17:41;;;;;;;12.20;8.32;;;;;;;15.39;59.40;98748.88;5091903;28;20031;-76
2023/04/25 05:20:09;;;;;;;11.50;8.82;;;;;;;15.27;60.18;98722.25;5091836;28;20028;-77
2023/04/25 05:22:34;;;;;;;11.85;8.55;;;;;;;15.50;60.08;98752.59;5091799;28;20020;-76
2023/04/25 05:25:00;;;;;;;11.30;8.88;;;;;;;15.37;60.21;98720.88;5092121;28;20020;-76
2023/04/25 05:27:25;;;;;;;9.68;8.70;;;;;;;15.38;61.05;98728.63;5091545;28;20055;-76
2023/04/25 05:29:51;;;;;;;9.35;8.45;;;;;;;15.09;61.52;98681.63;5090575;28;20028;-76
2023/04/25 05:32:17;;;;;;;14.35;9.00;;;;;;;15.36;61.45;98712.09;5091686;28;20055;-76
2023/04/25 05:34:42;;;;;;;9.18;7.80;;;;;;;15.21;61.69;98671.81;5091662;28;20081;-75
2023/04/25 05:37:08;;;;;;;9.90;8.90;;;;;;;15.48;61.63;98709.44;5091578;28;20089;-75
2023/04/25 05:39:33;;;;;;;12.50;9.25;;;;;;;15.32;61.92;98691.50;5091016;28;20075;-75
2023/04/25 05:41:59;;;;;;;9.20;7.88;;;;;;;15.48;61.70;98714.75;5086081;28;20028;-75
2023/04/25 05:44:24;;;;;;;9.45;7.63;;;;;;;15.47;61.61;98716.63;5087870;28;20035;-75
2023/04/25 05:46:50;;;;;;;9.95;7.30;;;;;;;15.60;61.42;98728.09;5111255;28;20525;-75
2023/04/25 05:49:16;;;;;;;9.43;7.63;;;;;;;15.54;61.11;98697.88;5110617;28;20024;-76
2023/04/25 05:51:41;;;;;;;7.50;6.72;;;;;;;15.59;60.84;98708.69;5089743;28;20050;-77
2023/04/25 05:54:06;;;;;;;7.57;6.28;;;;;;;15.44;60.93;98679.84;5090842;28;20020;-77
2023/04/25 05:56:32;;;;;;;5.80;5.30;;;;;;;15.60;60.68;98690.84;5090120;28;20458;-77
2023/04/25 05:58:57;;;;;;;6.57;5.82;;;;;;;15.98;60.22;98733.81;5089033;28;20510;-76
2023/04/25 06:01:23;;;;;;;7.05;5.65;;;;;;;16.15;59.88;98729.41;5086870;28;20027;-77
2023/04/25 06:03:49;;;;;;;7.20;6.15;;;;;;;16.29;59.69;98740.59;5090497;28;20523;-77
2023/04/25 06:06:14;;;;;;;9.52;8.27;;;;;;;15.47;59.46;98596.91;5101870;28;20027;-76
2023/04/25 06:08:40;;;;;;;8.15;7.03;;;;;;;16.41;59.35;98743.28;5090253;28;20569;-76
2023/04/25 06:11:06;;;;;;;10.30;7.35;;;;;;;16.16;59.00;98691.06;5091274;28;20027;-77
2023/04/25 06:13:31;;;;;;;8.35;6.95;;;;;;;16.56;58.64;98742.78;5089270;28;20465;-76
2023/04/25 06:15:57;;;;;;;6.75;6.07;;;;;;;16.36;58.72;98693.38;5091285;28;20020;-76
2023/04/25 06:18:22;;;;;;;6.45;5.85;;;;;;;16.17;57.91;98651.94;5089348;28;20028;-77
2023/04/25 06:20:47;;;;;;;6.75;5.97;;;;;;;16.41;57.77;98696.13;5093134;28;20088;-76
2023/04/25 06:23:13;;;;;;;7.13;6.00;;;;;;;16.86;57.78;98734.59;5090360;28;20043;-77
2023/04/25 06:25:38;;;;;;;10.82;8.13;;;;;;;16.28;57.24;98628.97;5083572;28;20066;-76
2023/04/25 06:28:04;;;;;;;6.70;5.93;;;;;;;17.06;57.24;98751.78;5088904;28;20020;-76
2023/04/25 06:30:29;;;;;;;9.45;6.75;;;;;;;16.67;56.77;98662.00;5090850;28;20473;-76
2023/04/25 06:32:55;;;;;;;8.68;6.43;;;;;;;16.47;56.38;98617.91;5090648;28;20024;-76
2023/04/25 06:35:20;;;;;;;10.65;9.02;;;;;;;16.63;56.22;98644.84;5090339;28;20023;-76
2023/04/25 06:37:47;;;;;;;8.13;6.03;;;;;;;17.17;56.07;98736.78;5089735;28;20494;-75
2023/04/25 06:40:13;;;;;;;8.43;6.93;;;;;;;16.80;55.91;98686.50;5090948;28;20031;-77
2023/04/25 06:42:38;;;;;;;9.77;6.90;;;;;;;16.97;55.85;98699.88;5089738;28;20424;-77
2023/04/25 06:45:04;;;;;;;7.22;5.65;;;;;;;17.14;55.48;98711.41;5076868;28;20537;-76
2023/04/25 06:47:29;;;;;;;7.38;5.60;;;;;;;17.08;55.29;98727.53;5070984;28;20078;-76
2023/04/25 06:49:55;;;;;;;8.48;5.50;;;;;;;16.75;55.09;98659.75;5081330;28;20032;-76
2023/04/25 06:52:20;;;;;;;6.65;4.97;;;;;;;16.74;54.42;98652.00;5092735;28;20059;-77
2023/04/25 06:54:46;;;;;;;7.60;4.82;;;;;;;17.43;54.55;98751.38;5092011;28;20019;-76
2023/04/25 06:57:11;;;;;;;7.10;4.68;;;;;;;16.99;54.57;98663.09;5076528;28;20538;-77
2023/04/25 06:59:37;;;;;;;6.75;5.70;;;;;;;17.26;53.93;98702.53;5074813;28;20047;-77
2023/04/25 07:02:03;;;;;;;5.78;5.28;;;;;;;17.43;53.82;98727.34;5090758;28;20119;-78
2023/04/25 07:04:28;;;;;;;5.72;4.88;;;;;;;17.32;53.55;98690.88;5094045;28;20028;-76
2023/04/25 07:06:54;;;;;;;7.55;5.82;;;;;;;17.28;53.33;98671.06;5092788;28;20081;-77
2023/04/25 07:09:20;;;;;;;10.48;6.90;;;;;;;17.77;53.44;98731.66;5087724;28;20104;-77
2023/04/25 07:11:45;;;;;;;9.25;7.65;;;;;;;17.53;53.31;98671.47;5092687;28;20389;-77
2023/04/25 07:14:11;;;;;;;7.93;6.18;;;;;;;17.68;52.84;98677.06;5093866;28;20020;-77
2023/04/25 07:16:36;;;;;;;7.43;6.13;;;;;;;17.63;52.89;98660.13;5093547;28;20035;-76
2023/04/25 07:19:02;;;;;;;6.97;6.22;;;;;;;17.99;52.70;98725.59;5088048;28;20072;-77
2023/04/25 07:21:27;;;;;;;9.07;7.85;;;;;;;17.83;52.95;98707.69;5093516;28;20031;-75
2023/04/25 07:23:52;;;;;;;8.98;6.63;;;;;;;17.75;52.78;98706.25;5093106;28;20099;-76
2023/04/25 07:26:18;;;;;;;9.70;8.23;;;;;;;17.42;53.15;98667.84;5093217;28;20136;-74
2023/04/25 07:28:44;;;;;;;7.55;6.68;;;;;;;17.86;53.26;98731.28;5093454;28;20063;-76
2023/04/25 07:31:09;;;;;;;8.85;7.30;;;;;;;17.86;53.66;98723.25;5093454;28;20036;-75
2023/04/25 07:33:35;;;;;;;9.00;8.10;;;;;;;17.41;53.46;98636.06;5093452;28;20016;-74
2023/04/25 07:36:00;;;;;;;9.70;8.32;;;;;;;18.11;53.62;98710.25;5091496;28;20048;-77
2023/04/25 07:38:26;;;;;;;9.13;8.18;;;;;;;18.16;53.79;98706.84;5093417;28;20024;-75
2023/04/25 07:40:51;;;;;;;8.00;7.22;;;;;;;18.18;53.79;98694.84;5093069;28;20103;-77
2023/04/25 07:43:17;;;;;;;8.18;7.40;;;;;;;18.20;53.83;98684.72;5090049;28;20412;-74
2023/04/25 07:45:43;;;;;;;7.07;6.38;;;;;;;18.20;53.69;98666.03;5092739;28;20027;-75
2023/04/25 07:48:09;;;;;;;8.48;7.63;;;;;;;18.47;53.41;98687.44;5087970;28;20060;-75
2023/04/25 07:50:35;;;;;;;9.10;7.50;;;;;;;18.46;53.35;98671.66;5091476;28;20089;-75
2023/04/25 07:53:00;;;;;;;8.38;7.47;;;;;;;17.96;53.18;98590.66;5108826;28;20492;-76
2023/04/25 07:55:26;;;;;;;10.60;7.00;;;;;;;18.23;53.12;98633.47;5094275;28;20028;-75
2023/04/25 07:57:51;;;;;;;7.05;6.35;;;;;;;18.75;53.15;98699.84;5100713;28;20024;-74
2023/04/25 08:00:17;;;;;;;9.35;7.28;;;;;;;18.51;53.16;98661.03;5093950;28;20008;-76
2023/04/25 08:02:42;;;;;;;6.60;5.95;;;;;;;18.38;52.89;98652.34;5090016;28;20419;-74
2023/04/25 08:05:11;;;;;;;8.13;6.68;;;;;;;18.38;52.70;98625.63;5082771;28;20070;-77
2023/04/25 08:07:37;;;;;;;14.40;12.88;;;;;;;18.44;52.29;98621.13;5089305;28;20043;-77
2023/04/25 08:10:03;;;;;;;14.60;11.40;;;;;;;18.32;51.75;98607.09;5088187;28;20496;-76
2023/04/25 08:12:28;;;;;;;6.88;6.28;;;;;;;18.95;51.71;98704.59;5092091;28;20019;-77
2023/04/25 08:14:53;;;;;;;9.45;8.45;;;;;;;19.06;51.32;98708.97;5095765;28;20157;-76
2023/04/25 08:17:19;;;;;;;7.10;5.50;;;;;;;19.09;50.96;98691.63;5091742;28;20031;-77
2023/04/25 08:19:44;;;;;;;7.53;6.07;;;;;;;19.32;50.74;98691.28;5094361;28;20051;-76
2023/04/25 08:22:10;;;;;;;6.10;5.07;;;;;;;19.29;50.08;98667.69;5090609;28;20020;-77
2023/04/25 08:24:35;;;;;;;8.52;6.07;;;;;;;19.65;50.01;98695.59;5090572;28;20023;-77
2023/04/25 08:27:01;;;;;;;6.22;5.10;;;;;;;19.74;49.70;98710.13;5098535;28;20052;-76
2023/04/25 08:29:28;;;;;;;5.93;5.18;;;;;;;19.70;49.43;98676.88;5091650;28;20419;-77
2023/04/25 08:31:53;;;;;;;5.80;5.20;;;;;;;19.69;49.38;98656.53;5098823;28;20500;-76
2023/04/25 08:34:19;;;;;;;5.25;4.75;;;;;;;19.44;49.45;98618.84;5093023;28;20528;-77
2023/04/25 08:36:45;;;;;;;7.70;6.35;;;;;;;19.80;49.42;98668.09;5093389;28;20028;-77
2023/04/25 08:39:10;;;;;;;6.15;5.43;;;;;;;19.72;49.20;98633.78;5090092;28;20107;-78
2023/04/25 08:41:37;;;;;;;5.90;5.40;;;;;;;19.83;48.98;98644.28;5092000;28;20524;-77
2023/04/25 08:44:04;;;;;;;5.07;4.57;;;;;;;20.36;48.50;98698.69;5088961;28;20035;-78
2023/04/25 08:46:31;;;;;;;6.10;5.15;;;;;;;20.49;48.17;98702.78;5090522;28;20104;-77
2023/04/25 08:49:01;;;;;;;5.13;4.63;;;;;;;20.54;48.09;98700.94;5090393;28;20031;-77
2023/04/25 08:51:27;;;;;;;6.20;4.80;;;;;;;20.39;47.66;98668.72;5098846;28;20028;-77
2023/04/25 08:53:53;;;;;;;10.00;9.00;;;;;;;20.76;47.58;98702.59;5097209;28;20024;-77
2023/04/25 08:56:22;;;;;;;11.18;6.57;;;;;;;20.65;46.75;98637.41;5105626;28;20046;-77
2023/04/25 08:58:50;;;;;;;4.18;3.72;;;;;;;20.78;46.27;98647.63;5093627;28;20500;-77
2023/04/25 09:01:16;;;;;;;4.93;3.53;;;;;;;20.96;45.64;98650.88;5087533;28;20070;-77
2023/04/25 09:03:43;;;;;;;5.28;3.90;;;;;;;21.48;45.47;98701.66;5089778;28;20027;-77
2023/04/25 09:06:11;;;;;;;4.32;3.70;;;;;;;21.46;45.07;98645.53;5091876;28;20031;-77
2023/04/25 09:08:39;;;;;;;3.97;3.60;;;;;;;21.54;44.73;98610.06;5096441;28;20485;-77
2023/04/25 09:11:06;;;;;;;4.05;3.72;;;;;;;22.11;44.34;98677.94;5089575;28;20024;-76
2023/04/25 09:13:31;;;;;;;4.13;3.72;;;;;;;21.98;44.10;98630.91;5084363;28;20050;-78
2023/04/25 09:15:58;;;;;;;4.28;3.72;;;;;;;22.32;43.75;98673.31;5087803;28;20032;-77
2023/04/25 09:18:25;;;;;;;3.65;3.35;;;;;;;22.14;43.67;98618.25;5090528;28;20048;-76
2023/04/25 09:20:56;;;;;;;4.32;3.40;;;;;;;22.76;43.21;98662.59;5093175;28;20023;-77
2023/04/25 09:23:23;;;;;;;6.45;3.85;;;;;;;22.96;42.60;98637.47;5088712;28;20028;-78
2023/04/25 09:25:50;;;;;;;6.90;4.65;;;;;;;22.89;42.26;98610.84;5090949;28;20570;-76
2023/04/25 09:28:15;;;;;;;5.97;5.38;;;;;;;23.41;42.13;98665.94;5085297;28;20027;-75
2023/04/25 09:30:45;;;;;;;7.75;5.85;;;;;;;23.28;42.11;98621.59;5088027;28;20425;-76
2023/04/25 09:33:12;;;;;;;5.05;4.60;;;;;;;23.32;41.84;98586.81;5088695;28;20024;-76
2023/04/25 09:35:52;;;;;;;4.95;4.45;;;;;;;23.96;41.32;98653.84;5090588;28;20039;-75
2023/04/25 09:38:18;;;;;;;6.45;5.53;;;;;;;23.74;41.66;98642.72;5090031;28;20042;-76
2023/04/25 09:40:47;;;;;;;6.95;5.18;;;;;;;23.55;41.81;98644.53;5090642;28;20493;-75
2023/04/25 09:43:20;;;;;;;7.15;5.63;;;;;;;22.91;41.83;98573.69;5088388;28;20152;-75
2023/04/25 09:45:47;;;;;;;6.70;4.03;;;;;;;23.38;41.79;98629.59;5089979;28;20166;-76
2023/04/25 09:48:21;;;;;;;7.05;4.90;;;;;;;23.19;41.63;98561.34;5089104;28;20583;-77
2023/04/25 09:51:08;;;;;;;4.25;2.90;;;;;;;23.83;40.34;98635.66;5090570;28;20035;-77
2023/04/25 09:53:39;;;;;;;6.15;5.47;;;;;;;23.70;41.08;98644.41;5095385;28;20044;-76
2023/04/25 09:56:08;;;;;;;3.67;3.20;;;;;;;23.13;40.50;98571.38;5096467;28;20025;-76
2023/04/25 09:58:35;;;;;;;3.17;2.70;;;;;;;22.91;40.80;98572.91;5107897;28;20408;-77
2023/04/25 10:01:04;;;;;;;4.65;3.28;;;;;;;22.99;41.52;98639.59;5101761;28;20030;-75
2023/04/25 10:03:31;;;;;;;3.67;3.35;;;;;;;22.66;41.93;98641.94;5101760;28;20027;-75
2023/04/25 10:05:59;;;;;;;4.03;2.80;;;;;;;22.24;41.95;98649.66;5086008;28;20125;-77
2023/04/25 10:08:31;;;;;;;4.85;2.55;;;;;;;21.51;42.14;98581.06;5089875;28;20619;-76
2023/04/25 10:11:02;;;;;;;4.72;3.95;;;;;;;21.74;42.12;98654.09;5095160;28;20077;-76
2023/04/25 10:13:30;;;;;;;5.93;4.50;;;;;;;21.14;43.21;98602.84;5077663;28;20013;-76
2023/04/25 10:15:57;;;;;;;3.75;3.20;;;;;;;20.86;44.95;98588.09;5083519;28;20081;-76
2023/04/25 10:18:25;;;;;;;3.42;3.13;;;;;;;20.45;45.94;98570.31;5088150;28;20058;-73
2023/04/25 10:20:50;;;;;;;4.07;3.67;;;;;;;20.35;47.80;98602.44;5092329;28;20027;-74
2023/04/25 10:23:16;;;;;;;4.20;3.53;;;;;;;20.05;49.08;98579.00;5093131;28;20024;-77
2023/04/25 10:25:43;;;;;;;5.53;4.68;;;;;;;19.99;50.12;98605.78;5088471;28;20042;-75
2023/04/25 10:28:08;;;;;;;4.13;3.72;;;;;;;19.95;50.71;98634.16;5093981;28;20476;-74
2023/04/25 10:30:33;;;;;;;8.15;4.68;;;;;;;19.92;51.27;98655.31;5094033;28;20131;-76
2023/04/25 10:32:59;;;;;;;5.15;4.03;;;;;;;19.87;51.87;98666.81;5094530;28;20084;-73
2023/04/25 10:35:27;;;;;;;5.00;4.50;;;;;;;19.63;52.41;98665.59;5090941;28;20492;-76
2023/04/25 10:38:10;;;;;;;6.72;5.40;;;;;;;19.42;53.30;98669.97;5088310;28;20111;-75
2023/04/25 10:40:35;;;;;;;6.05;5.47;;;;;;;19.19;53.73;98632.84;5090687;28;20012;-75
2023/04/25 10:43:36;;;;;;;6.55;5.03;;;;;;;19.31;54.86;98663.72;5091692;28;20031;-76
2023/04/25 10:46:02;;;;;;;5.60;4.70;;;;;;;18.70;54.79;98595.50;5090561;28;20463;-76
2023/04/25 10:48:30;;;;;;;5.40;4.47;;;;;;;19.13;55.32;98676.66;5090650;28;20028;-76
2023/04/25 10:51:17;;;;;;;6.63;5.20;;;;;;;18.68;56.22;98625.19;5088323;28;20039;-75
2023/04/25 10:53:46;;;;;;;4.43;4.00;;;;;;;18.18;55.42;98571.16;5087555;28;20481;-75
2023/04/25 10:56:32;;;;;;;4.22;3.70;;;;;;;18.77;55.69;98683.56;5088090;28;20058;-76
2023/04/25 10:59:12;;;;;;;4.88;4.00;;;;;;;18.57;55.29;98668.84;5100374;28;20048;-76
2023/04/25 11:01:38;;;;;;;6.20;4.43;;;;;;;18.40;56.04;98679.63;5095706;28;20420;-75
2023/04/25 11:04:04;;;;;;;6.68;5.03;;;;;;;17.90;56.37;98628.25;5095198;28;20032;-75
2023/04/25 11:06:46;;;;;;;4.03;3.63;;;;;;;17.99;56.72;98654.28;5093241;28;20042;-75
2023/04/25 11:09:15;;;;;;;4.40;3.90;;;;;;;17.82;56.70;98626.78;5092889;28;20052;-75
2023/04/25 11:11:41;;;;;;;4.63;3.70;;;;;;;18.06;56.45;98648.75;5092919;28;20088;-75
2023/04/25 11:14:06;;;;;;;5.85;4.10;;;;;;;18.11;56.42;98630.09;5093343;28;20028;-76
2023/04/25 11:16:32;;;;;;;4.93;3.85;;;;;;;17.79;57.14;98549.84;5093508;28;20055;-74
2023/04/25 11:18:58;;;;;;;4.60;3.95;;;;;;;18.20;57.19;98590.41;5093783;28;20016;-75
2023/04/25 11:21:26;;;;;;;5.45;4.00;;;;;;;17.76;57.81;98505.75;5100531;28;20428;-76
2023/04/25 11:23:51;;;;;;;5.65;3.97;;;;;;;18.21;58.13;98544.72;5100298;28;20076;-76
2023/04/25 11:26:19;;;;;;;5.15;3.78;;;;;;;18.38;57.98;98549.97;5095284;28;20528;-76
2023/04/25 11:28:45;;;;;;;6.45;5.00;;;;;;;18.05;57.71;98509.03;5093201;28;20030;-76